createdAt,value
2023-05-21T00:00:06.747Z,100
2023-05-21T00:05:58.939Z,100
2023-05-21T00:11:12.571Z,100
2023-05-21T00:17:01.737Z,100
2023-05-21T00:22:35.838Z,100
2023-05-21T00:27:59.536Z,100
2023-05-21T00:39:03.231Z,100
2023-05-21T00:44:25.773Z,100
2023-05-21T00:50:02.133Z,100
2023-05-21T00:55:37.579Z,100
2023-05-21T01:01:16.594Z,100
2023-05-21T01:06:44.898Z,100
2023-05-21T01:12:16.294Z,100
2023-05-21T01:17:58.562Z,100
2023-05-21T01:23:21.552Z,100
2023-05-21T01:29:06.988Z,100
2023-05-21T01:34:47.920Z,100
2023-05-21T01:40:03.794Z,100
2023-05-21T01:45:33.438Z,100
2023-05-21T01:51:13.779Z,100
2023-05-21T01:57:01.490Z,100
2023-05-21T02:02:24.072Z,100
2023-05-21T02:07:44.288Z,100
2023-05-21T02:13:28.699Z,100
2023-05-21T02:19:01.133Z,100
2023-05-21T02:24:24.723Z,100
2023-05-21T02:29:55.240Z,100
2023-05-21T02:35:44.981Z,100
2023-05-21T02:41:27.032Z,100
2023-05-21T02:47:02.674Z,100
2023-05-21T02:52:17.101Z,100
2023-05-21T03:03:18.759Z,100
2023-05-21T03:08:47.744Z,100
2023-05-21T03:14:28.217Z,100
2023-05-21T03:20:21.699Z,100
2023-05-21T03:25:51.853Z,100
2023-05-21T03:31:01.020Z,100
2023-05-21T03:36:53.937Z,100
2023-05-21T03:42:19.751Z,100
2023-05-21T03:53:19.978Z,100
2023-05-21T03:59:04.094Z,100
2023-05-21T04:04:25.530Z,100
2023-05-21T04:10:05.541Z,100
2023-05-21T04:15:32.516Z,100
2023-05-21T04:21:20.000Z,100
2023-05-21T04:26:47.045Z,100
2023-05-21T04:32:23.606Z,100
2023-05-21T04:37:37.036Z,100
2023-05-21T04:43:19.557Z,100
2023-05-21T04:49:06.213Z,100
2023-05-21T04:54:41.986Z,100
2023-05-21T05:00:08.892Z,100
2023-05-21T05:05:27.229Z,100
2023-05-21T05:10:58.147Z,100
2023-05-21T05:16:31.944Z,100
2023-05-21T05:22:28.321Z,100
2023-05-21T05:33:19.139Z,100
2023-05-21T05:38:51.637Z,100
2023-05-21T05:44:30.798Z,100
2023-05-21T05:50:03.788Z,100
2023-05-21T05:55:42.010Z,100
2023-05-21T06:01:24.985Z,100
2023-05-21T06:06:54.391Z,100
2023-05-21T06:12:07.373Z,100
2023-05-21T06:17:45.016Z,100
2023-05-21T06:23:16.761Z,100
2023-05-21T06:28:51.511Z,100
2023-05-21T06:34:44.770Z,100
2023-05-21T06:40:00.087Z,100
2023-05-21T06:45:57.268Z,100
2023-05-21T06:51:23.645Z,100
2023-05-21T06:57:02.184Z,100
2023-05-21T07:02:23.849Z,100
2023-05-21T07:07:55.991Z,100
2023-05-21T07:18:59.808Z,100
2023-05-21T07:24:38.167Z,100
2023-05-21T07:30:08.097Z,100
2023-05-21T07:35:49.888Z,100
2023-05-21T07:41:40.397Z,100
2023-05-21T07:47:15.545Z,100
2023-05-21T07:52:31.030Z,100
2023-05-21T07:58:14.373Z,100
2023-05-21T08:04:05.623Z,100
2023-05-21T08:09:22.545Z,100
2023-05-21T08:15:05.000Z,100
2023-05-21T08:20:26.915Z,100
2023-05-21T08:26:02.621Z,100
2023-05-21T08:31:58.800Z,100
2023-05-21T08:37:17.349Z,100
2023-05-21T08:42:58.415Z,100
2023-05-21T08:48:27.754Z,100
2023-05-21T08:54:01.870Z,100
2023-05-21T08:59:59.188Z,100
2023-05-21T09:05:33.988Z,100
2023-05-21T09:11:10.084Z,100
2023-05-21T09:16:38.270Z,100
2023-05-21T09:22:20.150Z,100
2023-05-21T09:27:42.120Z,100
2023-05-21T09:33:15.020Z,100
2023-05-21T09:38:56.147Z,100
2023-05-21T09:44:47.449Z,100
2023-05-21T09:50:21.201Z,100
2023-05-21T09:55:59.048Z,100
2023-05-21T10:01:21.288Z,100
2023-05-21T10:07:01.333Z,100
2023-05-21T10:12:41.620Z,100
2023-05-21T10:18:22.574Z,100
2023-05-21T10:24:04.316Z,100
2023-05-21T10:29:31.682Z,100
2023-05-21T10:35:10.795Z,100
2023-05-21T10:41:00.850Z,100
2023-05-21T10:46:18.938Z,100
2023-05-21T10:52:07.629Z,100
2023-05-21T10:57:29.109Z,100
2023-05-21T11:03:23.788Z,100
2023-05-21T11:08:53.804Z,100
2023-05-21T11:14:26.096Z,100
2023-05-21T11:20:08.102Z,100
2023-05-21T11:25:41.772Z,100
2023-05-21T11:31:35.840Z,100
2023-05-21T11:37:06.908Z,100
2023-05-21T11:42:35.621Z,100
2023-05-21T11:48:07.609Z,100
2023-05-21T11:53:57.760Z,100
2023-05-21T11:59:31.412Z,100
2023-05-21T12:05:22.739Z,100
2023-05-21T12:10:58.633Z,100
2023-05-21T12:16:43.918Z,100
2023-05-21T12:21:56.882Z,100
2023-05-21T12:27:51.871Z,100
2023-05-21T12:33:29.571Z,100
2023-05-21T12:39:11.433Z,100
2023-05-21T12:44:36.782Z,100
2023-05-21T12:50:28.008Z,100
2023-05-21T12:55:55.414Z,100
2023-05-21T13:01:51.191Z,100
2023-05-21T13:07:16.236Z,100
2023-05-21T13:18:43.221Z,100
2023-05-21T13:24:05.905Z,100
2023-05-21T13:29:57.139Z,100
2023-05-21T13:35:35.161Z,100
2023-05-21T13:41:11.280Z,100
2023-05-21T13:47:02.565Z,100
2023-05-21T13:52:20.306Z,100
2023-05-21T13:57:53.661Z,100
2023-05-21T14:03:51.969Z,100
2023-05-21T14:09:13.214Z,100
2023-05-21T14:15:06.608Z,100
2023-05-21T14:20:41.687Z,100
2023-05-21T14:26:28.566Z,100
2023-05-21T14:31:55.524Z,100
2023-05-21T14:48:54.816Z,87
2023-05-21T14:54:54.643Z,100
2023-05-21T15:00:28.127Z,98
2023-05-21T15:05:54.932Z,100
2023-05-21T15:17:16.423Z,96
2023-05-21T15:22:46.467Z,95
2023-05-21T15:28:21.092Z,90
2023-05-21T15:34:13.871Z,85
2023-05-21T15:39:51.389Z,89
2023-05-21T15:45:44.830Z,88
2023-05-21T15:51:04.640Z,94
2023-05-21T15:56:39.700Z,91
2023-05-21T16:02:40.430Z,94
2023-05-21T16:13:57.960Z,100
2023-05-21T16:19:12.809Z,97
2023-05-21T16:25:12.162Z,100
2023-05-21T16:30:41.883Z,100
2023-05-21T16:36:07.689Z,100
2023-05-21T16:42:03.702Z,100
2023-05-21T16:47:19.314Z,100
2023-05-21T16:52:54.673Z,100
2023-05-21T16:58:44.996Z,100
2023-05-21T17:04:29.334Z,100
2023-05-21T17:09:56.025Z,100
2023-05-21T17:15:28.408Z,100
2023-05-21T17:21:17.388Z,100
2023-05-21T17:26:40.809Z,100
2023-05-21T17:32:18.081Z,100
2023-05-21T17:37:40.213Z,100
2023-05-21T17:43:32.463Z,100
2023-05-21T17:49:07.395Z,100
2023-05-21T17:54:26.687Z,100
2023-05-21T18:00:25.667Z,100
2023-05-21T18:06:00.120Z,100
2023-05-21T18:11:26.699Z,100
2023-05-21T18:16:49.784Z,100
2023-05-21T18:22:25.275Z,100
2023-05-21T18:33:39.240Z,100
2023-05-21T18:39:35.581Z,100
2023-05-21T18:45:11.244Z,100
2023-05-21T18:50:41.565Z,100
2023-05-21T18:55:58.150Z,100
2023-05-21T19:01:44.934Z,100
2023-05-21T19:07:06.148Z,100
2023-05-21T19:12:58.009Z,100
2023-05-21T19:18:34.764Z,100
2023-05-21T19:23:59.277Z,100
2023-05-21T19:29:29.574Z,100
2023-05-21T19:35:00.101Z,100
2023-05-21T19:40:36.381Z,100
2023-05-21T19:46:25.473Z,100
2023-05-21T19:52:04.449Z,100
2023-05-21T19:57:36.370Z,100
2023-05-21T20:03:00.382Z,100
2023-05-21T20:08:44.690Z,100
2023-05-21T20:14:17.267Z,100
2023-05-21T20:19:53.752Z,100
2023-05-21T20:25:20.099Z,100
2023-05-21T20:31:05.189Z,100
2023-05-21T20:36:26.140Z,100
2023-05-21T20:42:11.846Z,100
2023-05-21T20:47:51.545Z,100
2023-05-21T20:53:22.885Z,100
2023-05-21T20:58:49.870Z,100
2023-05-21T21:04:19.814Z,100
2023-05-21T21:10:15.875Z,100
2023-05-21T21:15:47.171Z,100
2023-05-21T21:21:01.328Z,100
2023-05-21T21:26:55.947Z,100
2023-05-21T21:32:30.429Z,100
2023-05-21T21:43:19.258Z,100
2023-05-21T21:49:16.131Z,100
2023-05-21T21:54:31.909Z,100
2023-05-21T21:59:58.528Z,100
2023-05-21T22:05:59.472Z,100
2023-05-21T22:11:15.319Z,100
2023-05-21T22:16:52.548Z,100
2023-05-21T22:22:41.098Z,100
2023-05-21T22:28:03.792Z,100
2023-05-21T22:33:44.297Z,100
2023-05-21T22:39:04.450Z,100
2023-05-21T22:44:41.189Z,100
2023-05-21T22:50:16.214Z,100
2023-05-21T22:55:48.139Z,100
2023-05-21T23:01:33.071Z,100
2023-05-21T23:07:13.940Z,100
2023-05-21T23:12:30.453Z,100
2023-05-21T23:18:01.432Z,100
2023-05-21T23:24:01.370Z,100
2023-05-21T23:29:18.294Z,100
2023-05-21T23:35:07.527Z,100
2023-05-21T23:40:31.001Z,100
2023-05-21T23:46:07.845Z,100
2023-05-21T23:51:40.842Z,100
2023-05-21T23:57:24.533Z,100
